Time;durP1;ratioP1;P1;durP2;ratioP2;P2;SDS_P1;SDS_P2;PMS_P1;PMS_P2;Temp;Humidity;BMP_temperature;BMP_pressure;BME280_temperature;BME280_humidity;BME280_pressure;Samples;Min_cycle;Max_cycle;Signal;HPM_P1;HPM_P2
2024/01/13 00:00:57;;;;;;;63.58;26.25;;;2.30;99.90;;;;;;6098709;23;20024;-77
2024/01/13 00:03:22;;;;;;;63.63;26.35;;;2.40;99.90;;;;;;6098450;23;20020;-77
2024/01/13 00:05:48;;;;;;;77.72;26.85;;;2.40;99.90;;;;;;6096771;23;20351;-77
2024/01/13 00:08:14;;;;;;;63.03;24.35;;;2.40;99.90;;;;;;6097640;23;20514;-77
2024/01/13 00:10:39;;;;;;;61.38;23.00;;;2.40;99.90;;;;;;6097423;23;20017;-76
2024/01/13 00:13:07;;;;;;;52.95;21.67;;;2.40;99.90;;;;;;6098818;23;20010;-76
2024/01/13 00:15:32;;;;;;;55.03;21.55;;;2.40;99.90;;;;;;6100647;23;20097;-77
2024/01/13 00:17:58;;;;;;;43.92;19.20;;;2.40;99.90;;;;;;6099891;23;20100;-77
2024/01/13 00:20:24;;;;;;;49.33;21.35;;;2.40;99.90;;;;;;6099926;23;20021;-77
2024/01/13 00:22:50;;;;;;;58.47;22.75;;;2.40;99.90;;;;;;6099204;23;20053;-76
2024/01/13 00:25:16;;;;;;;50.47;20.90;;;2.40;99.90;;;;;;6099888;23;20459;-76
2024/01/13 00:27:42;;;;;;;54.08;21.25;;;2.40;99.90;;;;;;6100166;23;20018;-76
2024/01/13 00:30:08;;;;;;;45.65;19.02;;;2.40;99.90;;;;;;6099993;23;20017;-76
2024/01/13 00:32:33;;;;;;;50.42;19.25;;;2.40;99.90;;;;;;6100543;23;20014;-76
2024/01/13 00:34:59;;;;;;;46.88;19.05;;;2.40;99.90;;;;;;6100200;23;20017;-77
2024/01/13 00:37:25;;;;;;;48.53;18.67;;;2.40;99.90;;;;;;6099944;23;20009;-77
2024/01/13 00:39:51;;;;;;;48.22;18.83;;;2.40;99.90;;;;;;6099913;23;20457;-76
2024/01/13 00:42:16;;;;;;;50.65;19.63;;;2.30;99.90;;;;;;6099924;23;20037;-76
2024/01/13 00:44:42;;;;;;;42.72;19.35;;;2.40;99.90;;;;;;6099536;23;20010;-77
2024/01/13 00:47:08;;;;;;;49.92;20.67;;;2.30;99.90;;;;;;6100091;23;20025;-76
2024/01/13 00:49:34;;;;;;;43.60;20.05;;;2.30;99.90;;;;;;6099391;23;20036;-76
2024/01/13 00:52:00;;;;;;;53.90;22.08;;;2.40;99.90;;;;;;6099477;23;20354;-76
2024/01/13 00:54:25;;;;;;;69.85;24.13;;;2.40;99.90;;;;;;6099318;23;20319;-76
2024/01/13 00:56:53;;;;;;;48.70;22.10;;;2.40;99.90;;;;;;6100034;23;20501;-76
2024/01/13 00:59:19;;;;;;;45.53;20.70;;;2.40;99.90;;;;;;6099924;23;20013;-76
2024/01/13 01:01:45;;;;;;;58.20;22.63;;;2.40;99.90;;;;;;6099795;23;20262;-76
2024/01/13 01:04:11;;;;;;;43.90;21.48;;;2.40;99.90;;;;;;6099187;23;20018;-76
2024/01/13 01:06:37;;;;;;;53.47;23.30;;;2.40;99.90;;;;;;6099028;23;20014;-76
2024/01/13 01:09:02;;;;;;;66.03;25.65;;;2.40;99.90;;;;;;6099333;23;20493;-76
2024/01/13 01:11:28;;;;;;;55.67;25.23;;;2.40;99.90;;;;;;6099754;23;20018;-76
2024/01/13 01:13:55;;;;;;;65.43;26.83;;;2.40;99.90;;;;;;6099309;23;20009;-76
2024/01/13 01:16:21;;;;;;;65.53;27.65;;;2.40;99.90;;;;;;6099695;23;20014;-76
2024/01/13 01:18:46;;;;;;;78.18;29.15;;;2.40;99.90;;;;;;6099832;23;20014;-76
2024/01/13 01:21:16;;;;;;;66.00;28.73;;;2.30;99.90;;;;;;6099769;23;20320;-76
2024/01/13 01:23:42;;;;;;;77.38;31.13;;;2.40;99.90;;;;;;6098032;23;20076;-76
2024/01/13 01:26:07;;;;;;;65.00;28.73;;;2.40;99.90;;;;;;6099247;23;20021;-76
2024/01/13 01:28:33;;;;;;;69.82;30.30;;;2.40;99.90;;;;;;6099455;23;20016;-76
2024/01/13 01:30:59;;;;;;;77.05;29.98;;;2.40;99.90;;;;;;6099540;23;20017;-76
2024/01/13 01:33:25;;;;;;;86.90;31.33;;;2.40;99.90;;;;;;6099115;23;20021;-76
2024/01/13 01:35:50;;;;;;;90.18;31.73;;;2.30;99.90;;;;;;6099432;23;20356;-76
2024/01/13 01:38:16;;;;;;;78.47;30.20;;;2.40;99.90;;;;;;6098677;23;20021;-76
2024/01/13 01:40:43;;;;;;;70.45;27.27;;;2.40;99.90;;;;;;6099239;23;20018;-76
2024/01/13 01:43:08;;;;;;;72.20;28.42;;;2.40;99.90;;;;;;6099001;23;20053;-76
2024/01/13 01:45:34;;;;;;;83.15;30.60;;;2.40;99.90;;;;;;6099238;23;20061;-76
2024/01/13 01:48:06;;;;;;;69.40;27.50;;;2.40;99.90;;;;;;6099120;23;20024;-77
2024/01/13 01:50:32;;;;;;;;;;;2.40;99.90;;;;;;6123996;23;20129;-77
2024/01/13 01:52:58;;;;;;;47.33;23.40;;;2.40;99.90;;;;;;6098361;23;20326;-76
2024/01/13 01:55:24;;;;;;;55.90;23.92;;;2.40;99.90;;;;;;6099562;23;20064;-76
2024/01/13 01:57:50;;;;;;;47.22;22.63;;;2.40;99.90;;;;;;6099364;23;20045;-76
2024/01/13 02:00:18;;;;;;;56.78;24.45;;;2.50;99.90;;;;;;6099173;23;20014;-77
2024/01/13 02:02:44;;;;;;;61.35;24.58;;;2.40;99.90;;;;;;6099002;23;20025;-77
2024/01/13 02:05:09;;;;;;;52.65;24.42;;;2.40;99.90;;;;;;6098861;23;20077;-76
2024/01/13 02:07:36;;;;;;;51.53;24.35;;;2.40;99.90;;;;;;6098889;23;20514;-76
2024/01/13 02:10:02;;;;;;;52.50;24.25;;;2.40;99.90;;;;;;6099171;23;20014;-76
2024/01/13 02:12:28;;;;;;;55.35;24.88;;;2.40;99.90;;;;;;6098714;23;20014;-76
2024/01/13 02:14:54;;;;;;;56.05;25.02;;;2.40;99.90;;;;;;6098571;23;20014;-77
2024/01/13 02:17:22;;;;;;;74.63;27.27;;;2.40;99.90;;;;;;6099106;23;20355;-76
2024/01/13 02:19:47;;;;;;;71.75;28.05;;;2.40;99.90;;;;;;6099363;23;20069;-76
2024/01/13 02:22:13;;;;;;;62.28;26.83;;;2.40;99.90;;;;;;6098816;23;20033;-77
2024/01/13 02:24:39;;;;;;;62.97;27.02;;;2.40;99.90;;;;;;6098934;23;20045;-77
2024/01/13 02:27:04;;;;;;;69.45;28.33;;;2.40;99.90;;;;;;6097987;23;20014;-77
2024/01/13 02:29:32;;;;;;;69.47;28.88;;;2.40;99.90;;;;;;6098791;23;20010;-76
2024/01/13 02:31:58;;;;;;;64.90;29.50;;;2.40;99.90;;;;;;6098721;23;20021;-77
2024/01/13 02:34:23;;;;;;;72.45;30.23;;;2.30;99.90;;;;;;6098507;23;20037;-76
2024/01/13 02:36:49;;;;;;;60.90;29.08;;;2.40;99.90;;;;;;6098862;23;20144;-76
2024/01/13 02:39:15;;;;;;;63.15;28.83;;;2.40;99.90;;;;;;6099123;23;20014;-76
2024/01/13 02:41:42;;;;;;;67.95;29.27;;;2.40;99.90;;;;;;6097670;23;20024;-76
2024/01/13 02:44:08;;;;;;;67.35;27.92;;;2.40;99.90;;;;;;6097954;23;20018;-76
2024/01/13 02:46:34;;;;;;;59.95;26.20;;;2.40;99.90;;;;;;6099115;23;20481;-76
2024/01/13 02:49:00;;;;;;;67.32;27.23;;;2.40;99.90;;;;;;6098772;23;20438;-76
2024/01/13 02:51:27;;;;;;;70.13;28.40;;;2.40;99.90;;;;;;6098988;23;20025;-76
2024/01/13 02:53:53;;;;;;;65.68;27.58;;;2.40;99.90;;;;;;6097685;23;20092;-76
2024/01/13 02:56:19;;;;;;;52.67;25.25;;;2.40;99.90;;;;;;6098664;23;20073;-76
2024/01/13 02:58:45;;;;;;;67.57;26.58;;;2.30;99.90;;;;;;6098925;23;20014;-76
2024/01/13 03:01:11;;;;;;;74.93;28.33;;;2.30;99.90;;;;;;6098845;23;20018;-76
2024/01/13 03:03:37;;;;;;;67.47;28.50;;;2.30;99.90;;;;;;6098739;23;20014;-76
2024/01/13 03:06:04;;;;;;;53.63;25.25;;;2.40;99.90;;;;;;6098708;23;20024;-76
2024/01/13 03:08:30;;;;;;;62.65;27.50;;;2.30;99.90;;;;;;6098048;23;20013;-76
2024/01/13 03:10:55;;;;;;;66.97;26.67;;;2.30;99.90;;;;;;6098728;23;20347;-76
2024/01/13 03:13:21;;;;;;;69.88;26.98;;;2.30;99.90;;;;;;6098073;23;20013;-76
2024/01/13 03:15:47;;;;;;;60.40;24.67;;;2.30;99.90;;;;;;6098603;23;20013;-76
2024/01/13 03:18:12;;;;;;;57.83;25.17;;;2.30;99.90;;;;;;6098634;23;20509;-76
2024/01/13 03:20:38;;;;;;;50.58;23.92;;;2.30;99.90;;;;;;6098700;23;20022;-76
2024/01/13 03:23:04;;;;;;;55.72;24.17;;;2.30;99.90;;;;;;6098233;23;20327;-77
2024/01/13 03:25:29;;;;;;;71.80;25.48;;;2.30;99.90;;;;;;6122530;23;20018;-76
2024/01/13 03:27:55;;;;;;;65.85;24.88;;;2.30;99.90;;;;;;6098761;23;20022;-76
2024/01/13 03:30:21;;;;;;;48.67;22.75;;;2.30;99.90;;;;;;6098463;23;20021;-76
2024/01/13 03:32:46;;;;;;;54.25;22.90;;;2.30;99.90;;;;;;6098381;23;20067;-77
2024/01/13 03:35:12;;;;;;;64.43;24.40;;;2.30;99.90;;;;;;6099345;23;20114;-76
2024/01/13 03:37:38;;;;;;;73.13;26.45;;;2.30;99.90;;;;;;6097922;23;20025;-76
2024/01/13 03:40:04;;;;;;;72.60;25.48;;;2.30;99.90;;;;;;6098437;23;20089;-76
2024/01/13 03:42:29;;;;;;;97.93;26.67;;;2.30;99.90;;;;;;6098678;23;20010;-76
2024/01/13 03:44:56;;;;;;;93.53;25.25;;;2.30;99.90;;;;;;6098254;23;20578;-76
2024/01/13 03:47:22;;;;;;;103.03;25.52;;;2.30;99.90;;;;;;6099372;23;20014;-76
2024/01/13 03:49:48;;;;;;;108.68;26.67;;;2.30;99.90;;;;;;6100187;23;20100;-76
2024/01/13 03:52:14;;;;;;;102.35;24.55;;;2.30;99.90;;;;;;6100078;23;20482;-76
2024/01/13 03:54:40;;;;;;;89.28;23.23;;;2.40;99.90;;;;;;6099085;23;20010;-76
2024/01/13 03:57:06;;;;;;;86.68;22.60;;;2.40;99.90;;;;;;6100051;23;20437;-77
2024/01/13 03:59:31;;;;;;;70.93;20.42;;;2.40;99.90;;;;;;6100193;23;20052;-76
2024/01/13 04:01:57;;;;;;;61.38;20.10;;;2.40;99.90;;;;;;6100455;23;20014;-76
2024/01/13 04:04:23;;;;;;;44.90;17.48;;;2.40;99.90;;;;;;6099682;23;20033;-76
2024/01/13 04:06:48;;;;;;;55.20;18.55;;;2.40;99.90;;;;;;6100362;23;20370;-76
2024/01/13 04:09:14;;;;;;;63.58;20.58;;;2.40;99.90;;;;;;6099983;23;20014;-76
2024/01/13 04:11:40;;;;;;;53.35;18.85;;;2.40;99.90;;;;;;6099480;23;20089;-76
2024/01/13 04:14:05;;;;;;;49.13;18.33;;;2.40;99.90;;;;;;6099764;23;20014;-76
2024/01/13 04:16:31;;;;;;;37.20;16.13;;;2.40;99.90;;;;;;6100175;23;20447;-77
2024/01/13 04:18:57;;;;;;;52.53;18.25;;;2.40;99.90;;;;;;6100170;23;20021;-76
2024/01/13 04:21:22;;;;;;;41.50;16.40;;;2.40;99.90;;;;;;6100220;23;20014;-76
2024/01/13 04:23:48;;;;;;;38.90;17.38;;;2.40;99.90;;;;;;6099474;23;20022;-76
2024/01/13 04:26:14;;;;;;;43.47;17.83;;;2.40;99.90;;;;;;6100212;23;20406;-76
2024/01/13 04:28:40;;;;;;;45.90;17.50;;;2.40;99.90;;;;;;6124248;23;20010;-77
2024/01/13 04:31:07;;;;;;;36.60;16.17;;;2.40;99.90;;;;;;6100374;23;20018;-77
2024/01/13 04:33:32;;;;;;;34.15;16.15;;;2.40;99.90;;;;;;6124411;23;20401;-76
2024/01/13 04:35:58;;;;;;;35.20;15.48;;;2.40;99.90;;;;;;6099981;23;20056;-76
2024/01/13 04:38:24;;;;;;;29.45;15.32;;;2.40;99.90;;;;;;6099784;23;20032;-76
2024/01/13 04:40:49;;;;;;;30.08;14.63;;;2.50;99.90;;;;;;6124222;23;20410;-76
2024/01/13 04:43:15;;;;;;;35.88;15.57;;;2.40;99.90;;;;;;6099963;23;20013;-76
2024/01/13 04:45:40;;;;;;;37.70;15.07;;;2.40;99.90;;;;;;6099968;23;20021;-76
2024/01/13 04:48:06;;;;;;;33.58;14.57;;;2.40;99.90;;;;;;6100676;23;20013;-77
2024/01/13 04:50:32;;;;;;;38.72;16.67;;;2.40;99.90;;;;;;6099628;23;20072;-77
2024/01/13 04:52:58;;;;;;;34.45;16.23;;;2.40;99.90;;;;;;6099376;23;20021;-76
2024/01/13 04:55:23;;;;;;;33.72;15.65;;;2.40;99.90;;;;;;6099473;23;20450;-76
2024/01/13 04:57:49;;;;;;;24.73;12.60;;;2.40;99.90;;;;;;6099015;23;20014;-77
2024/01/13 05:00:16;;;;;;;24.38;13.02;;;2.40;99.90;;;;;;6099452;23;20041;-76
2024/01/13 05:02:42;;;;;;;21.50;12.80;;;2.40;99.90;;;;;;6099371;23;20018;-77
2024/01/13 05:05:07;;;;;;;23.40;12.48;;;2.40;99.90;;;;;;6099674;23;20014;-77
2024/01/13 05:07:36;;;;;;;23.40;12.80;;;2.30;99.90;;;;;;6099410;23;20018;-76
2024/01/13 05:10:02;;;;;;;27.73;13.73;;;2.30;99.90;;;;;;6099524;23;20013;-77
2024/01/13 05:12:28;;;;;;;25.85;14.50;;;2.20;99.90;;;;;;6099442;23;20018;-77
2024/01/13 05:14:54;;;;;;;38.45;16.70;;;2.20;99.90;;;;;;6099633;23;20009;-77
2024/01/13 05:17:19;;;;;;;35.10;17.45;;;2.20;99.90;;;;;;6099729;23;20347;-77
2024/01/13 05:19:45;;;;;;;41.13;18.38;;;2.20;99.90;;;;;;6099296;23;20347;-77
2024/01/13 05:22:11;;;;;;;48.25;19.48;;;2.30;99.90;;;;;;6099374;23;20014;-77
2024/01/13 05:24:36;;;;;;;47.08;19.45;;;2.20;99.90;;;;;;6098744;23;20010;-77
2024/01/13 05:27:02;;;;;;;47.67;21.05;;;2.20;99.90;;;;;;6098798;23;20386;-77
2024/01/13 05:29:28;;;;;;;41.08;19.83;;;2.20;99.90;;;;;;6099141;23;20045;-77
2024/01/13 05:31:54;;;;;;;34.45;18.42;;;2.20;99.90;;;;;;6099466;23;20032;-77
2024/01/13 05:34:19;;;;;;;36.58;18.77;;;2.30;99.90;;;;;;6098959;23;20089;-76
2024/01/13 05:36:47;;;;;;;47.67;19.50;;;2.30;99.90;;;;;;6099147;23;20013;-77
2024/01/13 05:39:12;;;;;;;61.13;21.20;;;2.40;99.90;;;;;;6098997;23;20017;-76
2024/01/13 05:41:38;;;;;;;66.10;21.77;;;2.40;99.90;;;;;;6099299;23;20354;-77
2024/01/13 05:44:04;;;;;;;53.22;20.13;;;2.40;99.90;;;;;;6098494;23;20025;-76
2024/01/13 05:46:30;;;;;;;55.63;21.73;;;2.40;99.90;;;;;;6098910;23;20029;-76
2024/01/13 05:48:56;;;;;;;43.42;19.25;;;2.40;99.90;;;;;;6123409;23;20018;-77
2024/01/13 05:51:22;;;;;;;51.13;19.73;;;2.50;99.90;;;;;;6098835;23;20018;-76
2024/01/13 05:53:48;;;;;;;39.80;18.05;;;2.50;99.90;;;;;;6098881;23;20097;-77
2024/01/13 05:56:13;;;;;;;53.28;19.48;;;2.50;99.90;;;;;;6099380;23;20053;-77
2024/01/13 05:58:41;;;;;;;66.72;21.17;;;2.40;99.90;;;;;;6098407;23;20069;-77
2024/01/13 06:01:06;;;;;;;48.88;19.55;;;2.40;99.90;;;;;;6098854;23;20018;-77
2024/01/13 06:03:33;;;;;;;41.97;18.23;;;2.40;99.90;;;;;;6098661;23;20029;-77
2024/01/13 06:05:58;;;;;;;53.15;19.85;;;2.40;99.90;;;;;;6098825;23;20021;-77
2024/01/13 06:08:24;;;;;;;46.78;18.58;;;2.40;99.90;;;;;;6098680;23;20024;-77
2024/01/13 06:10:51;;;;;;;52.83;18.25;;;2.30;99.90;;;;;;6098831;23;20018;-77
2024/01/13 06:13:18;;;;;;;45.85;18.65;;;2.40;99.90;;;;;;6098021;23;20045;-77
2024/01/13 06:15:44;;;;;;;46.78;17.83;;;2.40;99.90;;;;;;6098798;23;20017;-77
2024/01/13 06:18:10;;;;;;;41.40;17.58;;;2.40;99.90;;;;;;6099175;23;20006;-76
2024/01/13 06:20:35;;;;;;;47.53;17.48;;;2.40;99.90;;;;;;6098764;23;20013;-77
2024/01/13 06:23:01;;;;;;;50.50;18.73;;;2.40;99.90;;;;;;6098411;23;20065;-77
2024/01/13 06:25:28;;;;;;;37.13;16.38;;;2.40;99.90;;;;;;6098906;23;20022;-77
2024/01/13 06:27:54;;;;;;;37.13;16.48;;;2.40;99.90;;;;;;6099028;23;20351;-77
2024/01/13 06:30:20;;;;;;;34.65;14.98;;;2.50;99.90;;;;;;6098380;23;20018;-77
2024/01/13 06:32:46;;;;;;;36.72;15.60;;;2.40;99.90;;;;;;6098796;23;20020;-77
2024/01/13 06:35:11;;;;;;;35.10;14.90;;;2.50;99.90;;;;;;6098693;23;20461;-77
2024/01/13 06:37:37;;;;;;;40.72;15.65;;;2.50;99.90;;;;;;6098498;23;20014;-77
2024/01/13 06:40:03;;;;;;;36.53;15.50;;;2.50;99.90;;;;;;6099035;23;20021;-77
2024/01/13 06:42:29;;;;;;;43.47;16.58;;;2.50;99.90;;;;;;6098687;23;20048;-77
2024/01/13 06:44:55;;;;;;;49.95;18.33;;;2.50;99.90;;;;;;6098663;23;20014;-77
2024/01/13 06:47:21;;;;;;;47.28;17.75;;;2.50;99.90;;;;;;6098098;23;20010;-77
2024/01/13 06:49:48;;;;;;;41.60;17.88;;;2.50;99.90;;;;;;6098098;23;20088;-77
2024/01/13 06:52:14;;;;;;;66.30;20.83;;;2.60;99.90;;;;;;6098866;23;20097;-77
2024/01/13 06:54:41;;;;;;;48.15;19.15;;;2.60;99.90;;;;;;6098394;23;20009;-77
2024/01/13 06:57:06;;;;;;;54.35;20.38;;;2.60;99.90;;;;;;6098908;23;20401;-77
2024/01/13 06:59:33;;;;;;;58.28;20.75;;;2.60;99.90;;;;;;6098734;23;20052;-76
2024/01/13 07:01:59;;;;;;;62.33;20.73;;;2.60;99.90;;;;;;6097920;23;20061;-77
2024/01/13 07:04:27;;;;;;;49.30;18.90;;;2.50;99.90;;;;;;6097485;23;20013;-76
2024/01/13 07:06:53;;;;;;;50.70;19.48;;;2.50;99.90;;;;;;6099544;23;20413;-78
2024/01/13 07:09:19;;;;;;;45.92;19.05;;;2.60;99.90;;;;;;6100022;23;20014;-80
2024/01/13 07:11:49;;;;;;;39.00;18.38;;;2.50;99.90;;;;;;6099192;23;20014;-78
2024/01/13 07:14:15;;;;;;;32.33;16.67;;;2.60;99.90;;;;;;6097920;23;20013;-78
2024/01/13 07:16:40;;;;;;;45.92;18.48;;;2.50;99.90;;;;;;6099374;23;20017;-77
2024/01/13 07:19:07;;;;;;;51.97;19.10;;;2.60;99.90;;;;;;6098234;23;20037;-79
2024/01/13 07:21:34;;;;;;;48.13;18.70;;;2.60;99.90;;;;;;6098769;23;20339;-79
2024/01/13 07:24:00;;;;;;;37.78;17.30;;;2.70;99.90;;;;;;6100517;23;20517;-77
2024/01/13 07:26:25;;;;;;;48.13;19.40;;;2.60;99.90;;;;;;6100969;23;20101;-77
2024/01/13 07:28:51;;;;;;;48.95;19.88;;;2.60;99.90;;;;;;6100893;23;20018;-77
2024/01/13 07:31:17;;;;;;;44.58;19.75;;;2.60;99.90;;;;;;6100703;23;20068;-77
2024/01/13 07:33:43;;;;;;;50.80;20.48;;;2.60;99.90;;;;;;6101904;23;20510;-76
2024/01/13 07:36:08;;;;;;;48.88;19.98;;;2.60;99.90;;;;;;6100616;23;20089;-77
2024/01/13 07:38:34;;;;;;;35.35;16.95;;;2.70;99.90;;;;;;6099186;23;20014;-77
2024/01/13 07:41:00;;;;;;;43.17;17.23;;;2.70;99.90;;;;;;6099932;23;20068;-77
2024/01/13 07:43:25;;;;;;;37.55;15.30;;;2.70;99.90;;;;;;6124602;23;20065;-77
2024/01/13 07:45:51;;;;;;;30.25;14.52;;;2.80;99.90;;;;;;6100471;23;20076;-77
2024/01/13 07:48:16;;;;;;;28.77;14.68;;;2.80;99.90;;;;;;6100116;23;20517;-77
2024/01/13 07:50:42;;;;;;;22.33;13.65;;;2.80;99.90;;;;;;6099599;23;20018;-77
2024/01/13 07:53:08;;;;;;;29.70;14.88;;;2.80;99.90;;;;;;6100644;23;20018;-77
2024/01/13 07:55:33;;;;;;;35.40;15.15;;;2.80;99.90;;;;;;6124891;23;20088;-77
2024/01/13 07:58:01;;;;;;;27.45;13.77;;;2.80;99.90;;;;;;6126303;23;20014;-77
2024/01/13 08:00:30;;;;;;;27.92;13.82;;;2.80;99.90;;;;;;6101345;23;20443;-76
2024/01/13 08:02:56;;;;;;;30.35;15.60;;;2.80;99.90;;;;;;6124580;23;20041;-77
2024/01/13 08:05:22;;;;;;;28.70;14.23;;;2.80;99.90;;;;;;6099844;23;20097;-77
2024/01/13 08:07:47;;;;;;;31.58;15.13;;;2.80;99.90;;;;;;6124536;23;20014;-77
2024/01/13 08:10:13;;;;;;;30.88;15.13;;;2.80;99.90;;;;;;6126316;23;20350;-77
2024/01/13 08:12:39;;;;;;;35.08;15.48;;;2.70;99.90;;;;;;6100583;23;20017;-77
2024/01/13 08:15:05;;;;;;;39.90;16.38;;;2.80;99.90;;;;;;6099888;23;20048;-77
2024/01/13 08:17:31;;;;;;;31.85;15.10;;;2.80;99.90;;;;;;6100127;23;20449;-77
2024/01/13 08:19:57;;;;;;;32.85;15.75;;;2.80;99.90;;;;;;6099894;23;20092;-78
2024/01/13 08:22:23;;;;;;;37.03;16.90;;;2.80;99.90;;;;;;6100694;23;20014;-77
2024/01/13 08:24:51;;;;;;;42.35;19.52;;;2.90;99.90;;;;;;6099499;23;20022;-78
2024/01/13 08:27:17;;;;;;;52.53;21.20;;;2.90;99.90;;;;;;6124445;23;20038;-78
2024/01/13 08:29:43;;;;;;;55.45;22.70;;;3.00;99.90;;;;;;6099856;23;20312;-78
2024/01/13 08:32:08;;;;;;;70.80;24.92;;;3.00;99.90;;;;;;6100257;23;20014;-78
2024/01/13 08:34:34;;;;;;;73.05;28.02;;;3.00;99.90;;;;;;6123401;23;20046;-78
2024/01/13 08:37:00;;;;;;;86.43;31.10;;;3.10;99.90;;;;;;6099963;23;20010;-78
2024/01/13 08:39:25;;;;;;;86.90;31.70;;;3.10;99.90;;;;;;6124722;23;20339;-77
2024/01/13 08:41:51;;;;;;;100.40;35.05;;;3.10;99.90;;;;;;6124318;23;20101;-78
2024/01/13 08:44:17;;;;;;;111.97;35.97;;;3.10;99.90;;;;;;6099997;23;20025;-79
2024/01/13 08:46:42;;;;;;;104.03;35.42;;;3.00;99.90;;;;;;6124139;23;20022;-77
2024/01/13 08:49:08;;;;;;;133.88;39.03;;;3.10;99.90;;;;;;6123876;23;20057;-78
2024/01/13 08:51:34;;;;;;;109.00;38.47;;;3.00;99.90;;;;;;6099728;23;20045;-77
2024/01/13 08:54:00;;;;;;;97.78;38.65;;;3.00;99.90;;;;;;6099505;23;20010;-78
2024/01/13 08:56:26;;;;;;;97.80;37.03;;;3.00;99.90;;;;;;6099732;23;20094;-78
2024/01/13 08:58:51;;;;;;;129.05;41.75;;;3.00;99.90;;;;;;6123964;23;20046;-77
2024/01/13 09:01:18;;;;;;;93.43;40.25;;;3.00;99.90;;;;;;6124105;23;20018;-79
2024/01/13 09:03:45;;;;;;;94.68;42.22;;;3.00;99.90;;;;;;6099412;23;20110;-78
2024/01/13 09:06:11;;;;;;;136.57;46.30;;;3.00;99.90;;;;;;6100002;23;20053;-78
2024/01/13 09:08:38;;;;;;;122.22;46.75;;;3.00;99.90;;;;;;6100136;23;20018;-78
2024/01/13 09:11:04;;;;;;;163.95;50.97;;;3.00;99.90;;;;;;6124333;23;20029;-78
2024/01/13 09:13:30;;;;;;;149.27;50.38;;;3.10;99.90;;;;;;6098916;23;20088;-78
2024/01/13 09:15:56;;;;;;;161.20;55.28;;;3.00;99.90;;;;;;6099665;23;20013;-78
2024/01/13 09:18:21;;;;;;;171.38;53.72;;;3.00;99.90;;;;;;6099533;23;20010;-78
2024/01/13 09:20:47;;;;;;;124.05;52.65;;;3.00;99.90;;;;;;6099808;23;20265;-78
2024/01/13 09:23:13;;;;;;;163.00;54.08;;;3.00;99.90;;;;;;6099412;23;20025;-78
2024/01/13 09:25:38;;;;;;;118.20;50.78;;;3.00;99.90;;;;;;6124598;23;20017;-78
2024/01/13 09:28:04;;;;;;;117.68;51.38;;;3.00;99.90;;;;;;6099675;23;20018;-78
2024/01/13 09:30:30;;;;;;;119.68;54.30;;;3.00;99.90;;;;;;6099439;23;20351;-78
2024/01/13 09:32:55;;;;;;;141.20;55.83;;;3.00;99.90;;;;;;6099049;23;20022;-77
2024/01/13 09:35:21;;;;;;;159.88;60.53;;;3.00;99.90;;;;;;6099658;23;20073;-78
2024/01/13 09:37:47;;;;;;;113.40;53.90;;;2.90;99.90;;;;;;6125641;23;20017;-78
2024/01/13 09:40:15;;;;;;;143.88;56.67;;;3.00;99.90;;;;;;6099040;23;20388;-78
2024/01/13 09:43:09;;;;;;;161.52;61.05;;;3.00;99.90;;;;;;6122775;23;20382;-77
2024/01/13 09:45:38;;;;;;;146.68;61.88;;;3.00;99.90;;;;;;6121995;23;20009;-77
2024/01/13 09:48:10;;;;;;;149.50;60.40;;;3.00;99.90;;;;;;6099075;23;20145;-76
2024/01/13 09:50:39;;;;;;;110.25;58.08;;;3.00;99.90;;;;;;6123633;23;20049;-76
2024/01/13 09:53:08;;;;;;;129.80;61.28;;;3.00;99.90;;;;;;6098406;23;20451;-76
2024/01/13 09:55:36;;;;;;;129.88;60.33;;;3.00;99.90;;;;;;6099396;23;20013;-74
2024/01/13 09:58:02;;;;;;;125.90;59.63;;;3.10;99.90;;;;;;6099095;23;20375;-76
2024/01/13 10:00:31;;;;;;;129.73;62.10;;;3.10;99.90;;;;;;6098595;23;20029;-76
2024/01/13 10:02:57;;;;;;;128.68;61.28;;;3.10;99.90;;;;;;6098122;23;20018;-75
2024/01/13 10:05:24;;;;;;;123.47;60.45;;;3.10;99.90;;;;;;6098852;23;20009;-76
2024/01/13 10:07:52;;;;;;;133.82;63.30;;;3.10;99.90;;;;;;6099270;23;20017;-75
2024/01/13 10:10:19;;;;;;;106.38;59.65;;;3.10;99.90;;;;;;6098679;23;20024;-75
2024/01/13 10:12:45;;;;;;;110.40;62.60;;;3.10;99.90;;;;;;6098766;23;20023;-75
2024/01/13 10:15:16;;;;;;;131.40;68.20;;;3.10;99.90;;;;;;6123026;23;20428;-75
2024/01/13 10:17:42;;;;;;;103.47;62.67;;;3.20;99.90;;;;;;6098302;23;20010;-76
2024/01/13 10:20:13;;;;;;;134.40;68.32;;;3.20;99.90;;;;;;6098735;23;20336;-76
2024/01/13 10:22:38;;;;;;;120.53;66.45;;;3.20;99.90;;;;;;6123442;23;20082;-76
2024/01/13 10:25:06;;;;;;;111.57;67.03;;;3.20;99.90;;;;;;6098367;23;20062;-76
2024/01/13 10:27:32;;;;;;;124.60;70.43;;;3.20;99.90;;;;;;6098760;23;20057;-75
2024/01/13 10:29:59;;;;;;;152.57;76.15;;;3.20;99.90;;;;;;6122533;23;20088;-76
2024/01/13 10:32:25;;;;;;;131.10;77.35;;;3.30;99.90;;;;;;6098893;23;20021;-76
2024/01/13 10:34:53;;;;;;;124.82;78.93;;;3.30;99.90;;;;;;6098567;23;20441;-76
2024/01/13 10:37:18;;;;;;;129.90;76.15;;;3.20;99.90;;;;;;6098876;23;20039;-76
2024/01/13 10:39:44;;;;;;;119.15;73.63;;;3.30;99.90;;;;;;6097867;23;20010;-75
2024/01/13 10:42:10;;;;;;;135.43;77.00;;;3.30;99.90;;;;;;6098889;23;20117;-75
2024/01/13 10:44:45;;;;;;;117.07;73.43;;;3.40;99.90;;;;;;6098674;23;20018;-75
2024/01/13 10:47:16;;;;;;;121.47;75.25;;;3.40;99.90;;;;;;6120281;23;20485;-76
2024/01/13 10:49:45;;;;;;;122.90;78.10;;;3.40;99.90;;;;;;6119095;23;20017;-79
2024/01/13 10:52:14;;;;;;;118.78;77.57;;;3.40;99.90;;;;;;6151792;23;20592;-79
2024/01/13 10:54:40;;;;;;;137.90;85.63;;;3.50;99.90;;;;;;6151941;23;20009;-79
2024/01/13 10:57:06;;;;;;;126.45;84.13;;;3.50;99.90;;;;;;6152619;23;20471;-79
2024/01/13 10:59:35;;;;;;;107.35;80.03;;;3.50;99.90;;;;;;6130776;23;20141;-79
2024/01/13 11:02:00;;;;;;;125.10;84.82;;;3.50;99.90;;;;;;6122476;23;20029;-79
2024/01/13 11:04:27;;;;;;;133.38;87.32;;;3.50;99.90;;;;;;6122449;23;20014;-79
2024/01/13 11:06:54;;;;;;;128.43;86.03;;;3.50;99.90;;;;;;6122639;23;20482;-79
2024/01/13 11:09:20;;;;;;;109.25;79.95;;;3.60;99.90;;;;;;6122513;23;20024;-79
2024/01/13 11:12:01;;;;;;;121.78;85.18;;;3.60;99.90;;;;;;6122571;23;20093;-79
2024/01/13 11:14:40;;;;;;;117.25;84.85;;;3.60;99.90;;;;;;6122463;23;20010;-79
2024/01/13 11:17:09;;;;;;;112.13;82.22;;;3.70;99.90;;;;;;6123206;23;20090;-79
2024/01/13 11:19:38;;;;;;;121.47;82.43;;;3.70;99.90;;;;;;6122500;23;20122;-80
2024/01/13 11:22:29;;;;;;;101.50;74.82;;;3.70;99.90;;;;;;6097537;23;20022;-79
2024/01/13 11:24:55;;;;;;;109.18;78.47;;;3.80;99.90;;;;;;6121546;23;20046;-79
2024/01/13 11:27:22;;;;;;;113.45;79.85;;;3.80;99.90;;;;;;6121075;23;20021;-79
2024/01/13 11:29:47;;;;;;;100.82;76.53;;;3.80;99.90;;;;;;6098564;23;20042;-79
2024/01/13 11:32:13;;;;;;;97.93;75.05;;;3.90;99.90;;;;;;6122656;23;20514;-79
2024/01/13 11:34:39;;;;;;;106.65;76.88;;;3.80;99.90;;;;;;6121975;23;20451;-79
2024/01/13 11:37:06;;;;;;;107.10;77.97;;;3.90;99.90;;;;;;6123031;23;20006;-78
2024/01/13 11:39:32;;;;;;;113.93;78.20;;;3.90;99.90;;;;;;6123079;23;20041;-77
2024/01/13 11:41:58;;;;;;;111.28;79.47;;;3.90;99.90;;;;;;6122896;23;20076;-76
2024/01/13 11:44:32;;;;;;;99.70;75.53;;;3.90;99.90;;;;;;6098241;23;20037;-77
2024/01/13 11:47:04;;;;;;;118.28;79.20;;;3.90;99.90;;;;;;6122894;23;20086;-77
2024/01/13 11:49:36;;;;;;;100.80;71.20;;;3.90;99.90;;;;;;6122182;23;20014;-77
2024/01/13 11:52:29;;;;;;;91.32;67.75;;;3.90;99.90;;;;;;6122569;23;20093;-77
2024/01/13 11:54:56;;;;;;;94.22;65.18;;;3.90;99.90;;;;;;6117738;23;20014;-77
2024/01/13 11:57:21;;;;;;;92.35;65.68;;;3.90;99.90;;;;;;6122883;23;20450;-77
2024/01/13 11:59:47;;;;;;;88.85;66.95;;;3.90;99.90;;;;;;6122793;23;20053;-76
2024/01/13 12:02:13;;;;;;;101.55;68.75;;;4.00;99.90;;;;;;6122742;23;20096;-78
2024/01/13 12:04:41;;;;;;;90.70;65.72;;;4.00;99.90;;;;;;6122075;23;20021;-77
2024/01/13 12:07:10;;;;;;;91.10;67.18;;;4.00;99.90;;;;;;6122623;23;20045;-78
2024/01/13 12:09:37;;;;;;;98.50;68.85;;;4.00;99.90;;;;;;6124335;23;20052;-77
2024/01/13 12:12:05;;;;;;;88.50;67.55;;;4.00;99.90;;;;;;6124544;23;20092;-77
2024/01/13 12:14:33;;;;;;;76.85;60.03;;;4.20;99.90;;;;;;6124528;23;20018;-78
2024/01/13 12:17:00;;;;;;;93.25;69.10;;;4.30;99.90;;;;;;6100183;23;20349;-78
2024/01/13 12:19:36;;;;;;;77.32;60.60;;;4.40;99.90;;;;;;6123722;23;20053;-78
2024/01/13 12:22:07;;;;;;;72.57;58.33;;;4.50;99.90;;;;;;6100285;23;20339;-78
2024/01/13 12:24:34;;;;;;;62.67;54.13;;;4.50;99.90;;;;;;6099875;23;20045;-77
2024/01/13 12:27:00;;;;;;;71.32;57.08;;;4.50;99.90;;;;;;6124659;23;20014;-77
2024/01/13 12:29:33;;;;;;;73.57;59.13;;;4.60;99.90;;;;;;6124527;23;20079;-77
2024/01/13 12:32:00;;;;;;;72.50;60.47;;;4.60;99.90;;;;;;6124589;23;20089;-78